sensor_id;sensor_type;location;lat;lon;timestamp;P1;durP1;ratioP1;P2;durP2;ratioP2
3767;SDS011;1899;49.966;7.106;2022-10-16T04:00:11;4.80;;;1.95;;
3767;SDS011;1899;49.966;7.106;2022-10-16T04:02:37;10.23;;;2.20;;
3767;SDS011;1899;49.966;7.106;2022-10-16T04:05:02;9.17;;;2.10;;
3767;SDS011;1899;49.966;7.106;2022-10-16T04:07:27;4.83;;;1.97;;
3767;SDS011;1899;49.966;7.106;2022-10-16T04:09:53;6.57;;;2.30;;
3767;SDS011;1899;49.966;7.106;2022-10-16T04:12:18;10.33;;;2.30;;
3767;SDS011;1899;49.966;7.106;2022-10-16T04:14:44;8.07;;;2.73;;
3767;SDS011;1899;49.966;7.106;2022-10-16T04:17:09;4.45;;;2.08;;
3767;SDS011;1899;49.966;7.106;2022-10-16T04:19:34;6.03;;;2.10;;
3767;SDS011;1899;49.966;7.106;2022-10-16T04:21:59;4.90;;;2.30;;
3767;SDS011;1899;49.966;7.106;2022-10-16T04:24:24;7.73;;;2.50;;
3767;SDS011;1899;49.966;7.106;2022-10-16T04:26:50;3.00;;;2.30;;
3767;SDS011;1899;49.966;7.106;2022-10-16T04:29:15;2.85;;;1.85;;
3767;SDS011;1899;49.966;7.106;2022-10-16T04:31:40;4.20;;;2.10;;
3767;SDS011;1899;49.966;7.106;2022-10-16T04:34:05;7.17;;;2.00;;
3767;SDS011;1899;49.966;7.106;2022-10-16T04:36:31;4.80;;;2.60;;
3767;SDS011;1899;49.966;7.106;2022-10-16T04:38:56;4.20;;;1.80;;
3767;SDS011;1899;49.966;7.106;2022-10-16T04:41:21;4.35;;;1.50;;
3767;SDS011;1899;49.966;7.106;2022-10-16T04:43:46;6.60;;;1.60;;
3767;SDS011;1899;49.966;7.106;2022-10-16T04:46:12;3.20;;;1.40;;
3767;SDS011;1899;49.966;7.106;2022-10-16T04:48:37;6.33;;;1.63;;
3767;SDS011;1899;49.966;7.106;2022-10-16T04:51:02;4.43;;;1.67;;
3767;SDS011;1899;49.966;7.106;2022-10-16T04:53:27;2.70;;;1.60;;
3767;SDS011;1899;49.966;7.106;2022-10-16T04:55:53;1.80;;;1.57;;
3767;SDS011;1899;49.966;7.106;2022-10-16T04:58:18;3.78;;;1.70;;
3767;SDS011;1899;49.966;7.106;2022-10-16T05:00:44;3.07;;;1.40;;
3767;SDS011;1899;49.966;7.106;2022-10-16T05:03:09;5.60;;;1.80;;
3767;SDS011;1899;49.966;7.106;2022-10-16T05:05:35;2.27;;;1.50;;
3767;SDS011;1899;49.966;7.106;2022-10-16T05:08:00;4.30;;;1.80;;
3767;SDS011;1899;49.966;7.106;2022-10-16T05:10:25;2.60;;;1.90;;
3767;SDS011;1899;49.966;7.106;2022-10-16T05:12:51;6.80;;;2.17;;
3767;SDS011;1899;49.966;7.106;2022-10-16T05:15:16;7.67;;;2.27;;
3767;SDS011;1899;49.966;7.106;2022-10-16T05:17:41;10.07;;;2.50;;
3767;SDS011;1899;49.966;7.106;2022-10-16T05:20:07;5.00;;;2.10;;
3767;SDS011;1899;49.966;7.106;2022-10-16T05:22:32;3.80;;;1.47;;
3767;SDS011;1899;49.966;7.106;2022-10-16T05:24:57;5.60;;;2.10;;
3767;SDS011;1899;49.966;7.106;2022-10-16T05:27:23;6.83;;;2.30;;
3767;SDS011;1899;49.966;7.106;2022-10-16T05:29:48;4.30;;;2.28;;
3767;SDS011;1899;49.966;7.106;2022-10-16T05:32:17;4.33;;;2.17;;
3767;SDS011;1899;49.966;7.106;2022-10-16T05:34:42;6.72;;;2.75;;
3767;SDS011;1899;49.966;7.106;2022-10-16T05:37:08;4.13;;;2.20;;
3767;SDS011;1899;49.966;7.106;2022-10-16T05:39:33;4.05;;;2.00;;
3767;SDS011;1899;49.966;7.106;2022-10-16T05:41:58;3.70;;;2.50;;
3767;SDS011;1899;49.966;7.106;2022-10-16T05:44:24;5.23;;;2.00;;
3767;SDS011;1899;49.966;7.106;2022-10-16T05:46:49;7.90;;;2.00;;
3767;SDS011;1899;49.966;7.106;2022-10-16T05:49:14;2.30;;;1.50;;
3767;SDS011;1899;49.966;7.106;2022-10-16T05:51:39;6.70;;;1.73;;
3767;SDS011;1899;49.966;7.106;2022-10-16T05:54:06;3.45;;;2.00;;
3767;SDS011;1899;49.966;7.106;2022-10-16T05:56:31;3.13;;;2.15;;
3767;SDS011;1899;49.966;7.106;2022-10-16T05:58:56;2.40;;;1.80;;
3767;SDS011;1899;49.966;7.106;2022-10-16T06:01:21;3.80;;;2.30;;
3767;SDS011;1899;49.966;7.106;2022-10-16T06:03:49;3.92;;;1.80;;
3767;SDS011;1899;49.966;7.106;2022-10-16T06:06:15;11.10;;;3.60;;
3767;SDS011;1899;49.966;7.106;2022-10-16T06:08:41;6.82;;;2.85;;
3767;SDS011;1899;49.966;7.106;2022-10-16T06:11:08;4.40;;;2.40;;
3767;SDS011;1899;49.966;7.106;2022-10-16T06:13:33;4.50;;;1.88;;
3767;SDS011;1899;49.966;7.106;2022-10-16T06:15:59;4.53;;;1.90;;
3767;SDS011;1899;49.966;7.106;2022-10-16T06:18:25;3.95;;;2.00;;
3767;SDS011;1899;49.966;7.106;2022-10-16T06:20:51;4.50;;;2.55;;
3767;SDS011;1899;49.966;7.106;2022-10-16T06:23:16;3.50;;;2.20;;
3767;SDS011;1899;49.966;7.106;2022-10-16T06:25:41;2.30;;;2.10;;
3767;SDS011;1899;49.966;7.106;2022-10-16T06:28:06;2.43;;;1.80;;
3767;SDS011;1899;49.966;7.106;2022-10-16T06:30:32;3.30;;;2.00;;
3767;SDS011;1899;49.966;7.106;2022-10-16T06:32:57;3.90;;;1.93;;
3767;SDS011;1899;49.966;7.106;2022-10-16T06:35:22;2.43;;;1.90;;
3767;SDS011;1899;49.966;7.106;2022-10-16T06:37:48;4.13;;;2.13;;
3767;SDS011;1899;49.966;7.106;2022-10-16T06:40:14;4.60;;;2.30;;
3767;SDS011;1899;49.966;7.106;2022-10-16T06:42:39;3.63;;;2.25;;
3767;SDS011;1899;49.966;7.106;2022-10-16T06:45:05;4.47;;;2.20;;
3767;SDS011;1899;49.966;7.106;2022-10-16T06:47:30;4.90;;;2.40;;
3767;SDS011;1899;49.966;7.106;2022-10-16T06:49:55;2.80;;;2.00;;
3767;SDS011;1899;49.966;7.106;2022-10-16T06:52:21;4.03;;;1.80;;
3767;SDS011;1899;49.966;7.106;2022-10-16T06:54:47;2.30;;;2.00;;
3767;SDS011;1899;49.966;7.106;2022-10-16T06:57:12;6.33;;;2.30;;
3767;SDS011;1899;49.966;7.106;2022-10-16T06:59:37;5.30;;;2.30;;
3767;SDS011;1899;49.966;7.106;2022-10-16T07:02:02;2.87;;;1.80;;
3767;SDS011;1899;49.966;7.106;2022-10-16T07:04:27;5.20;;;1.87;;
3767;SDS011;1899;49.966;7.106;2022-10-16T07:06:53;5.13;;;2.77;;
3767;SDS011;1899;49.966;7.106;2022-10-16T07:09:18;8.87;;;2.90;;
3767;SDS011;1899;49.966;7.106;2022-10-16T07:11:43;4.37;;;1.83;;
3767;SDS011;1899;49.966;7.106;2022-10-16T07:14:18;4.60;;;1.80;;
3767;SDS011;1899;49.966;7.106;2022-10-16T07:16:44;5.30;;;2.00;;
3767;SDS011;1899;49.966;7.106;2022-10-16T07:19:09;3.90;;;1.80;;
3767;SDS011;1899;49.966;7.106;2022-10-16T07:21:36;3.15;;;1.90;;
3767;SDS011;1899;49.966;7.106;2022-10-16T07:24:02;3.23;;;2.07;;
3767;SDS011;1899;49.966;7.106;2022-10-16T07:26:28;4.13;;;2.13;;
3767;SDS011;1899;49.966;7.106;2022-10-16T07:28:55;2.83;;;1.90;;
3767;SDS011;1899;49.966;7.106;2022-10-16T07:31:22;3.28;;;2.30;;
3767;SDS011;1899;49.966;7.106;2022-10-16T07:33:47;4.82;;;2.40;;
3767;SDS011;1899;49.966;7.106;2022-10-16T07:36:13;2.70;;;2.10;;
3767;SDS011;1899;49.966;7.106;2022-10-16T07:38:38;2.93;;;2.10;;
3767;SDS011;1899;49.966;7.106;2022-10-16T07:41:05;4.10;;;2.00;;
3767;SDS011;1899;49.966;7.106;2022-10-16T07:43:30;2.30;;;2.00;;
3767;SDS011;1899;49.966;7.106;2022-10-16T07:45:56;3.30;;;1.90;;
3767;SDS011;1899;49.966;7.106;2022-10-16T07:48:22;4.60;;;2.60;;
3767;SDS011;1899;49.966;7.106;2022-10-16T07:50:48;3.60;;;2.20;;
3767;SDS011;1899;49.966;7.106;2022-10-16T07:53:13;3.37;;;2.50;;
3767;SDS011;1899;49.966;7.106;2022-10-16T07:55:39;2.70;;;2.50;;
3767;SDS011;1899;49.966;7.106;2022-10-16T07:58:05;5.17;;;3.13;;
3767;SDS011;1899;49.966;7.106;2022-10-16T08:00:30;5.60;;;3.60;;
3767;SDS011;1899;49.966;7.106;2022-10-16T08:02:56;4.22;;;3.10;;
3767;SDS011;1899;49.966;7.106;2022-10-16T08:05:24;5.70;;;3.00;;
3767;SDS011;1899;49.966;7.106;2022-10-16T08:07:50;4.40;;;2.90;;
3767;SDS011;1899;49.966;7.106;2022-10-16T08:10:16;3.80;;;3.20;;
3767;SDS011;1899;49.966;7.106;2022-10-16T08:12:41;5.20;;;3.40;;
3767;SDS011;1899;49.966;7.106;2022-10-16T08:15:06;5.87;;;4.67;;
3767;SDS011;1899;49.966;7.106;2022-10-16T08:17:32;4.50;;;3.60;;
3767;SDS011;1899;49.966;7.106;2022-10-16T08:19:57;3.40;;;3.00;;
3767;SDS011;1899;49.966;7.106;2022-10-16T08:22:22;3.10;;;2.40;;
3767;SDS011;1899;49.966;7.106;2022-10-16T08:24:47;5.10;;;2.90;;
3767;SDS011;1899;49.966;7.106;2022-10-16T08:27:13;4.67;;;2.63;;
3767;SDS011;1899;49.966;7.106;2022-10-16T08:29:38;3.55;;;2.72;;
3767;SDS011;1899;49.966;7.106;2022-10-16T08:32:03;6.13;;;2.90;;
3767;SDS011;1899;49.966;7.106;2022-10-16T08:34:29;2.90;;;2.70;;
3767;SDS011;1899;49.966;7.106;2022-10-16T08:36:54;3.07;;;2.60;;
3767;SDS011;1899;49.966;7.106;2022-10-16T08:39:20;5.65;;;2.60;;
3767;SDS011;1899;49.966;7.106;2022-10-16T08:46:54;3.07;;;2.27;;
3767;SDS011;1899;49.966;7.106;2022-10-16T08:49:21;9.65;;;2.85;;
3767;SDS011;1899;49.966;7.106;2022-10-16T08:51:46;6.00;;;2.70;;
3767;SDS011;1899;49.966;7.106;2022-10-16T08:54:31;6.38;;;2.50;;
3767;SDS011;1899;49.966;7.106;2022-10-16T08:57:01;8.23;;;3.20;;
3767;SDS011;1899;49.966;7.106;2022-10-16T08:59:32;3.10;;;2.60;;
3767;SDS011;1899;49.966;7.106;2022-10-16T09:01:57;2.70;;;2.40;;
3767;SDS011;1899;49.966;7.106;2022-10-16T09:07:01;4.97;;;2.40;;
3767;SDS011;1899;49.966;7.106;2022-10-16T09:17:37;3.07;;;2.20;;
3767;SDS011;1899;49.966;7.106;2022-10-16T09:22:37;6.17;;;3.10;;
3767;SDS011;1899;49.966;7.106;2022-10-16T09:25:14;7.03;;;2.67;;
3767;SDS011;1899;49.966;7.106;2022-10-16T09:27:39;2.60;;;1.30;;
3767;SDS011;1899;49.966;7.106;2022-10-16T09:30:12;2.77;;;1.20;;
3767;SDS011;1899;49.966;7.106;2022-10-16T09:32:37;2.90;;;1.80;;
3767;SDS011;1899;49.966;7.106;2022-10-16T09:35:03;3.28;;;1.60;;
3767;SDS011;1899;49.966;7.106;2022-10-16T09:37:29;2.73;;;1.00;;
3767;SDS011;1899;49.966;7.106;2022-10-16T09:39:55;3.17;;;1.40;;
3767;SDS011;1899;49.966;7.106;2022-10-16T09:44:47;3.30;;;1.20;;
3767;SDS011;1899;49.966;7.106;2022-10-16T09:47:18;3.17;;;1.65;;
3767;SDS011;1899;49.966;7.106;2022-10-16T09:49:59;4.00;;;1.50;;
3767;SDS011;1899;49.966;7.106;2022-10-16T09:52:27;4.40;;;1.30;;
3767;SDS011;1899;49.966;7.106;2022-10-16T09:57:21;1.80;;;1.20;;
3767;SDS011;1899;49.966;7.106;2022-10-16T09:59:57;2.85;;;1.00;;
3767;SDS011;1899;49.966;7.106;2022-10-16T10:02:35;2.50;;;1.10;;
3767;SDS011;1899;49.966;7.106;2022-10-16T10:05:00;2.72;;;1.20;;
3767;SDS011;1899;49.966;7.106;2022-10-16T10:07:26;1.30;;;0.90;;
3767;SDS011;1899;49.966;7.106;2022-10-16T10:09:52;5.83;;;1.07;;
3767;SDS011;1899;49.966;7.106;2022-10-16T10:14:44;2.40;;;1.10;;
3767;SDS011;1899;49.966;7.106;2022-10-16T10:17:12;1.55;;;1.00;;
3767;SDS011;1899;49.966;7.106;2022-10-16T10:22:13;1.03;;;0.80;;
3767;SDS011;1899;49.966;7.106;2022-10-16T10:24:38;4.55;;;1.10;;
3767;SDS011;1899;49.966;7.106;2022-10-16T10:27:06;2.85;;;1.00;;
3767;SDS011;1899;49.966;7.106;2022-10-16T10:29:41;2.70;;;1.25;;
3767;SDS011;1899;49.966;7.106;2022-10-16T10:35:13;1.30;;;0.90;;
3767;SDS011;1899;49.966;7.106;2022-10-16T10:43:10;1.70;;;0.80;;
3767;SDS011;1899;49.966;7.106;2022-10-16T10:45:42;1.40;;;1.00;;
3767;SDS011;1899;49.966;7.106;2022-10-16T10:56:15;1.80;;;0.80;;
3767;SDS011;1899;49.966;7.106;2022-10-16T11:01:04;0.90;;;0.70;;
3767;SDS011;1899;49.966;7.106;2022-10-16T11:04:33;1.30;;;0.80;;
3767;SDS011;1899;49.966;7.106;2022-10-16T11:06:28;1.00;;;0.70;;
3767;SDS011;1899;49.966;7.106;2022-10-16T11:11:26;2.00;;;0.80;;
3767;SDS011;1899;49.966;7.106;2022-10-16T11:14:00;1.40;;;0.93;;
3767;SDS011;1899;49.966;7.106;2022-10-16T11:16:34;2.00;;;0.80;;
3767;SDS011;1899;49.966;7.106;2022-10-16T11:21:30;3.25;;;1.20;;
3767;SDS011;1899;49.966;7.106;2022-10-16T11:24:04;5.35;;;1.10;;
3767;SDS011;1899;49.966;7.106;2022-10-16T11:26:33;6.10;;;1.30;;
3767;SDS011;1899;49.966;7.106;2022-10-16T11:28:59;2.80;;;1.20;;
3767;SDS011;1899;49.966;7.106;2022-10-16T11:31:32;1.70;;;1.00;;
3767;SDS011;1899;49.966;7.106;2022-10-16T11:36:36;1.50;;;0.83;;
3767;SDS011;1899;49.966;7.106;2022-10-16T11:47:08;1.40;;;0.70;;
3767;SDS011;1899;49.966;7.106;2022-10-16T11:49:32;2.40;;;1.20;;
3767;SDS011;1899;49.966;7.106;2022-10-16T11:52:18;2.00;;;0.90;;
3767;SDS011;1899;49.966;7.106;2022-10-16T11:54:48;2.78;;;1.20;;
3767;SDS011;1899;49.966;7.106;2022-10-16T11:57:16;3.38;;;0.95;;
3767;SDS011;1899;49.966;7.106;2022-10-16T12:04:47;4.80;;;1.10;;
3767;SDS011;1899;49.966;7.106;2022-10-16T12:07:16;2.20;;;1.10;;
3767;SDS011;1899;49.966;7.106;2022-10-16T12:09:43;1.50;;;1.02;;
3767;SDS011;1899;49.966;7.106;2022-10-16T12:15:21;2.20;;;0.90;;
3767;SDS011;1899;49.966;7.106;2022-10-16T12:17:47;2.85;;;1.00;;
3767;SDS011;1899;49.966;7.106;2022-10-16T12:22:42;1.50;;;1.00;;
3767;SDS011;1899;49.966;7.106;2022-10-16T12:28:00;8.00;;;1.30;;
3767;SDS011;1899;49.966;7.106;2022-10-16T12:30:26;3.20;;;1.20;;
3767;SDS011;1899;49.966;7.106;2022-10-16T12:32:56;1.10;;;0.90;;
3767;SDS011;1899;49.966;7.106;2022-10-16T12:35:29;1.50;;;1.00;;
3767;SDS011;1899;49.966;7.106;2022-10-16T12:38:04;2.90;;;1.02;;
3767;SDS011;1899;49.966;7.106;2022-10-16T12:40:31;2.97;;;1.10;;
3767;SDS011;1899;49.966;7.106;2022-10-16T12:42:57;2.40;;;1.30;;
3767;SDS011;1899;49.966;7.106;2022-10-16T12:45:24;2.37;;;1.10;;
3767;SDS011;1899;49.966;7.106;2022-10-16T12:47:51;6.90;;;1.50;;
3767;SDS011;1899;49.966;7.106;2022-10-16T12:50:23;1.30;;;0.93;;
3767;SDS011;1899;49.966;7.106;2022-10-16T12:52:49;8.30;;;1.60;;
3767;SDS011;1899;49.966;7.106;2022-10-16T12:55:18;1.50;;;1.10;;
3767;SDS011;1899;49.966;7.106;2022-10-16T13:05:35;1.73;;;1.30;;
3767;SDS011;1899;49.966;7.106;2022-10-16T13:18:58;4.47;;;1.20;;
3767;SDS011;1899;49.966;7.106;2022-10-16T13:29:03;5.27;;;1.33;;
3767;SDS011;1899;49.966;7.106;2022-10-16T13:31:29;4.10;;;1.50;;
3767;SDS011;1899;49.966;7.106;2022-10-16T13:33:56;2.40;;;1.10;;
3767;SDS011;1899;49.966;7.106;2022-10-16T13:36:43;1.65;;;1.10;;
3767;SDS011;1899;49.966;7.106;2022-10-16T13:39:15;1.45;;;1.20;;
3767;SDS011;1899;49.966;7.106;2022-10-16T13:41:42;1.70;;;1.10;;
3767;SDS011;1899;49.966;7.106;2022-10-16T13:44:18;1.50;;;1.08;;
3767;SDS011;1899;49.966;7.106;2022-10-16T13:46:44;1.20;;;1.10;;
3767;SDS011;1899;49.966;7.106;2022-10-16T13:49:16;2.43;;;1.40;;
3767;SDS011;1899;49.966;7.106;2022-10-16T13:51:47;2.00;;;1.20;;
3767;SDS011;1899;49.966;7.106;2022-10-16T13:54:18;2.10;;;1.30;;
3767;SDS011;1899;49.966;7.106;2022-10-16T13:56:43;1.60;;;1.10;;
3767;SDS011;1899;49.966;7.106;2022-10-16T13:59:33;1.80;;;0.90;;
3767;SDS011;1899;49.966;7.106;2022-10-16T14:01:58;3.05;;;1.17;;
3767;SDS011;1899;49.966;7.106;2022-10-16T14:04:25;3.22;;;1.30;;
3767;SDS011;1899;49.966;7.106;2022-10-16T14:06:51;1.30;;;1.10;;
3767;SDS011;1899;49.966;7.106;2022-10-16T14:11:45;2.87;;;1.23;;
3767;SDS011;1899;49.966;7.106;2022-10-16T14:14:11;1.60;;;1.30;;
3767;SDS011;1899;49.966;7.106;2022-10-16T14:16:37;1.67;;;1.30;;
3767;SDS011;1899;49.966;7.106;2022-10-16T14:19:05;2.13;;;1.30;;
3767;SDS011;1899;49.966;7.106;2022-10-16T14:21:32;2.80;;;1.20;;
3767;SDS011;1899;49.966;7.106;2022-10-16T14:23:57;1.93;;;1.33;;
3767;SDS011;1899;49.966;7.106;2022-10-16T14:26:24;2.80;;;1.58;;
3767;SDS011;1899;49.966;7.106;2022-10-16T14:29:01;4.78;;;1.50;;
3767;SDS011;1899;49.966;7.106;2022-10-16T14:31:31;3.10;;;1.60;;
3767;SDS011;1899;49.966;7.106;2022-10-16T14:33:56;7.40;;;2.00;;
3767;SDS011;1899;49.966;7.106;2022-10-16T14:36:21;10.80;;;2.70;;
3767;SDS011;1899;49.966;7.106;2022-10-16T14:41:21;17.50;;;2.90;;
3767;SDS011;1899;49.966;7.106;2022-10-16T14:43:50;8.43;;;2.10;;
3767;SDS011;1899;49.966;7.106;2022-10-16T14:46:16;10.88;;;2.63;;
3767;SDS011;1899;49.966;7.106;2022-10-16T14:48:43;2.53;;;1.80;;
3767;SDS011;1899;49.966;7.106;2022-10-16T14:51:11;4.13;;;1.77;;
3767;SDS011;1899;49.966;7.106;2022-10-16T14:53:38;2.92;;;1.90;;
3767;SDS011;1899;49.966;7.106;2022-10-16T14:56:07;6.50;;;1.80;;
3767;SDS011;1899;49.966;7.106;2022-10-16T14:58:32;8.98;;;2.10;;
3767;SDS011;1899;49.966;7.106;2022-10-16T15:00:58;4.67;;;1.80;;
3767;SDS011;1899;49.966;7.106;2022-10-16T15:03:23;7.93;;;2.20;;
3767;SDS011;1899;49.966;7.106;2022-10-16T15:05:48;22.20;;;3.50;;
3767;SDS011;1899;49.966;7.106;2022-10-16T15:08:13;6.17;;;2.10;;
3767;SDS011;1899;49.966;7.106;2022-10-16T15:10:40;2.17;;;1.98;;
3767;SDS011;1899;49.966;7.106;2022-10-16T15:13:06;3.30;;;1.90;;
3767;SDS011;1899;49.966;7.106;2022-10-16T15:15:38;4.23;;;2.00;;
3767;SDS011;1899;49.966;7.106;2022-10-16T15:18:05;10.02;;;2.67;;
3767;SDS011;1899;49.966;7.106;2022-10-16T15:20:32;6.83;;;2.40;;
3767;SDS011;1899;49.966;7.106;2022-10-16T15:22:59;7.97;;;2.20;;
3767;SDS011;1899;49.966;7.106;2022-10-16T15:27:49;5.63;;;2.00;;
3767;SDS011;1899;49.966;7.106;2022-10-16T15:30:14;4.60;;;1.90;;
3767;SDS011;1899;49.966;7.106;2022-10-16T15:32:40;24.03;;;3.70;;
3767;SDS011;1899;49.966;7.106;2022-10-16T15:35:07;14.20;;;2.87;;
3767;SDS011;1899;49.966;7.106;2022-10-16T15:37:33;6.70;;;2.50;;
3767;SDS011;1899;49.966;7.106;2022-10-16T15:39:58;2.30;;;2.10;;
3767;SDS011;1899;49.966;7.106;2022-10-16T15:42:26;4.93;;;2.10;;
3767;SDS011;1899;49.966;7.106;2022-10-16T15:44:51;5.80;;;1.87;;
3767;SDS011;1899;49.966;7.106;2022-10-16T15:47:16;9.47;;;2.60;;
3767;SDS011;1899;49.966;7.106;2022-10-16T15:49:42;15.47;;;3.20;;
3767;SDS011;1899;49.966;7.106;2022-10-16T15:52:07;10.80;;;2.70;;
3767;SDS011;1899;49.966;7.106;2022-10-16T15:54:32;20.80;;;2.93;;
3767;SDS011;1899;49.966;7.106;2022-10-16T15:56:57;4.00;;;2.40;;
3767;SDS011;1899;49.966;7.106;2022-10-16T15:59:23;6.90;;;2.40;;
3767;SDS011;1899;49.966;7.106;2022-10-16T16:01:48;13.83;;;3.03;;
3767;SDS011;1899;49.966;7.106;2022-10-16T16:04:13;10.03;;;2.50;;
3767;SDS011;1899;49.966;7.106;2022-10-16T16:06:38;7.00;;;2.60;;
3767;SDS011;1899;49.966;7.106;2022-10-16T16:09:09;4.00;;;2.60;;
3767;SDS011;1899;49.966;7.106;2022-10-16T16:11:37;27.42;;;5.45;;
3767;SDS011;1899;49.966;7.106;2022-10-16T16:14:06;20.70;;;4.40;;
3767;SDS011;1899;49.966;7.106;2022-10-16T16:16:32;5.18;;;3.03;;
3767;SDS011;1899;49.966;7.106;2022-10-16T16:19:02;6.03;;;2.30;;
3767;SDS011;1899;49.966;7.106;2022-10-16T16:21:27;9.23;;;2.85;;
3767;SDS011;1899;49.966;7.106;2022-10-16T16:23:52;8.17;;;3.00;;
3767;SDS011;1899;49.966;7.106;2022-10-16T16:26:27;9.80;;;2.70;;
3767;SDS011;1899;49.966;7.106;2022-10-16T16:28:56;22.70;;;4.35;;
3767;SDS011;1899;49.966;7.106;2022-10-16T16:31:25;23.63;;;4.70;;
3767;SDS011;1899;49.966;7.106;2022-10-16T16:33:51;7.47;;;3.30;;
3767;SDS011;1899;49.966;7.106;2022-10-16T16:36:16;8.57;;;3.37;;
3767;SDS011;1899;49.966;7.106;2022-10-16T16:38:42;5.47;;;3.30;;
3767;SDS011;1899;49.966;7.106;2022-10-16T16:41:14;5.43;;;3.10;;
3767;SDS011;1899;49.966;7.106;2022-10-16T16:43:40;5.65;;;2.90;;
3767;SDS011;1899;49.966;7.106;2022-10-16T16:46:05;6.60;;;3.20;;
3767;SDS011;1899;49.966;7.106;2022-10-16T16:48:31;7.80;;;3.10;;
3767;SDS011;1899;49.966;7.106;2022-10-16T16:50:56;9.85;;;3.40;;
3767;SDS011;1899;49.966;7.106;2022-10-16T16:53:21;10.60;;;3.50;;
3767;SDS011;1899;49.966;7.106;2022-10-16T16:55:47;15.75;;;4.70;;
3767;SDS011;1899;49.966;7.106;2022-10-16T16:58:12;6.80;;;3.67;;
3767;SDS011;1899;49.966;7.106;2022-10-16T17:00:44;17.60;;;4.63;;
3767;SDS011;1899;49.966;7.106;2022-10-16T17:03:09;19.47;;;4.53;;
3767;SDS011;1899;49.966;7.106;2022-10-16T17:05:35;5.73;;;3.40;;
3767;SDS011;1899;49.966;7.106;2022-10-16T17:08:00;6.97;;;3.90;;
3767;SDS011;1899;49.966;7.106;2022-10-16T17:10:26;12.20;;;4.40;;
3767;SDS011;1899;49.966;7.106;2022-10-16T17:12:51;12.70;;;4.10;;
3767;SDS011;1899;49.966;7.106;2022-10-16T17:15:16;8.13;;;4.00;;
3767;SDS011;1899;49.966;7.106;2022-10-16T17:17:41;6.10;;;3.87;;
3767;SDS011;1899;49.966;7.106;2022-10-16T17:20:07;10.27;;;4.00;;
3767;SDS011;1899;49.966;7.106;2022-10-16T17:22:33;7.03;;;3.90;;
3767;SDS011;1899;49.966;7.106;2022-10-16T17:24:59;12.93;;;4.10;;
3767;SDS011;1899;49.966;7.106;2022-10-16T17:27:24;5.67;;;4.00;;
3767;SDS011;1899;49.966;7.106;2022-10-16T17:29:50;10.70;;;4.20;;
3767;SDS011;1899;49.966;7.106;2022-10-16T17:32:15;9.90;;;4.60;;
3767;SDS011;1899;49.966;7.106;2022-10-16T17:34:40;8.50;;;5.37;;
3767;SDS011;1899;49.966;7.106;2022-10-16T17:37:05;7.83;;;5.53;;
3767;SDS011;1899;49.966;7.106;2022-10-16T17:39:31;10.07;;;5.50;;
3767;SDS011;1899;49.966;7.106;2022-10-16T17:41:56;8.03;;;5.03;;
3767;SDS011;1899;49.966;7.106;2022-10-16T17:44:21;9.40;;;5.60;;
3767;SDS011;1899;49.966;7.106;2022-10-16T17:46:48;6.53;;;5.37;;
3767;SDS011;1899;49.966;7.106;2022-10-16T17:49:14;9.30;;;5.40;;
3767;SDS011;1899;49.966;7.106;2022-10-16T17:51:39;14.35;;;5.60;;
3767;SDS011;1899;49.966;7.106;2022-10-16T17:54:05;11.47;;;5.60;;
3767;SDS011;1899;49.966;7.106;2022-10-16T17:56:30;7.00;;;5.30;;
3767;SDS011;1899;49.966;7.106;2022-10-16T17:58:56;11.03;;;5.60;;
3767;SDS011;1899;49.966;7.106;2022-10-16T18:01:28;7.17;;;4.30;;
3767;SDS011;1899;49.966;7.106;2022-10-16T18:03:55;7.10;;;4.95;;
3767;SDS011;1899;49.966;7.106;2022-10-16T18:06:21;6.38;;;4.47;;
3767;SDS011;1899;49.966;7.106;2022-10-16T18:08:46;9.27;;;5.30;;
3767;SDS011;1899;49.966;7.106;2022-10-16T18:11:12;6.43;;;4.73;;
3767;SDS011;1899;49.966;7.106;2022-10-16T18:13:37;10.88;;;5.60;;
3767;SDS011;1899;49.966;7.106;2022-10-16T18:16:03;7.60;;;5.13;;
3767;SDS011;1899;49.966;7.106;2022-10-16T18:18:29;7.18;;;5.05;;
3767;SDS011;1899;49.966;7.106;2022-10-16T18:20:55;10.47;;;4.40;;
3767;SDS011;1899;49.966;7.106;2022-10-16T18:23:20;9.63;;;5.07;;
3767;SDS011;1899;49.966;7.106;2022-10-16T18:25:49;5.70;;;4.40;;
3767;SDS011;1899;49.966;7.106;2022-10-16T18:28:15;9.43;;;5.60;;
3767;SDS011;1899;49.966;7.106;2022-10-16T18:30:40;14.90;;;5.70;;
3767;SDS011;1899;49.966;7.106;2022-10-16T18:33:05;6.93;;;5.03;;
3767;SDS011;1899;49.966;7.106;2022-10-16T18:35:30;9.32;;;5.90;;
3767;SDS011;1899;49.966;7.106;2022-10-16T18:37:59;8.80;;;5.93;;
3767;SDS011;1899;49.966;7.106;2022-10-16T18:40:24;20.95;;;7.30;;
3767;SDS011;1899;49.966;7.106;2022-10-16T18:42:50;12.33;;;7.03;;
3767;SDS011;1899;49.966;7.106;2022-10-16T18:45:17;19.37;;;7.60;;
3767;SDS011;1899;49.966;7.106;2022-10-16T18:47:42;23.03;;;7.70;;
3767;SDS011;1899;49.966;7.106;2022-10-16T18:50:07;9.37;;;6.90;;
3767;SDS011;1899;49.966;7.106;2022-10-16T18:52:32;8.55;;;7.60;;
3767;SDS011;1899;49.966;7.106;2022-10-16T18:54:58;18.17;;;8.53;;
3767;SDS011;1899;49.966;7.106;2022-10-16T18:57:23;13.63;;;7.80;;
3767;SDS011;1899;49.966;7.106;2022-10-16T18:59:49;12.27;;;8.52;;
3767;SDS011;1899;49.966;7.106;2022-10-16T19:02:14;11.03;;;6.70;;
3767;SDS011;1899;49.966;7.106;2022-10-16T19:04:40;12.57;;;7.00;;
3767;SDS011;1899;49.966;7.106;2022-10-16T19:07:05;14.40;;;8.10;;
3767;SDS011;1899;49.966;7.106;2022-10-16T19:09:31;9.40;;;7.70;;
3767;SDS011;1899;49.966;7.106;2022-10-16T19:11:56;18.45;;;7.53;;
3767;SDS011;1899;49.966;7.106;2022-10-16T19:14:23;16.25;;;8.05;;
3767;SDS011;1899;49.966;7.106;2022-10-16T19:16:49;12.17;;;8.50;;
3767;SDS011;1899;49.966;7.106;2022-10-16T19:19:15;13.43;;;8.90;;
3767;SDS011;1899;49.966;7.106;2022-10-16T19:21:42;15.48;;;9.10;;
3767;SDS011;1899;49.966;7.106;2022-10-16T19:24:09;7.97;;;6.33;;
3767;SDS011;1899;49.966;7.106;2022-10-16T19:26:35;9.00;;;6.60;;
3767;SDS011;1899;49.966;7.106;2022-10-16T19:29:01;11.80;;;6.85;;
3767;SDS011;1899;49.966;7.106;2022-10-16T19:31:28;13.93;;;9.13;;
3767;SDS011;1899;49.966;7.106;2022-10-16T19:33:54;10.07;;;7.57;;
3767;SDS011;1899;49.966;7.106;2022-10-16T19:36:23;13.98;;;7.30;;
3767;SDS011;1899;49.966;7.106;2022-10-16T19:38:53;11.40;;;8.07;;
3767;SDS011;1899;49.966;7.106;2022-10-16T19:41:19;9.70;;;8.70;;
3767;SDS011;1899;49.966;7.106;2022-10-16T19:43:45;14.75;;;11.05;;
3767;SDS011;1899;49.966;7.106;2022-10-16T19:46:14;11.02;;;8.98;;
3767;SDS011;1899;49.966;7.106;2022-10-16T19:48:40;10.83;;;8.37;;
3767;SDS011;1899;49.966;7.106;2022-10-16T19:51:06;18.40;;;11.30;;
3767;SDS011;1899;49.966;7.106;2022-10-16T19:53:32;17.15;;;10.48;;
3767;SDS011;1899;49.966;7.106;2022-10-16T19:55:57;23.33;;;10.48;;
3767;SDS011;1899;49.966;7.106;2022-10-16T19:58:23;17.00;;;10.20;;
